createdAt,value
2016-12-19T00:00:09.382Z,1023.24
2016-12-19T00:01:09.365Z,1023.22
2016-12-19T00:02:09.346Z,1023.23
2016-12-19T00:03:09.328Z,1023.22
2016-12-19T00:04:09.324Z,1023.24
2016-12-19T00:05:09.291Z,1023.26
2016-12-19T00:06:09.274Z,1023.29
2016-12-19T00:07:09.256Z,1023.23
2016-12-19T00:08:09.238Z,1023.21
2016-12-19T00:09:09.222Z,1023.21
2016-12-19T00:10:09.202Z,1023.2
2016-12-19T00:11:09.183Z,1023.21
2016-12-19T00:12:09.166Z,1023.2
2016-12-19T00:13:09.147Z,1023.19
2016-12-19T00:14:09.131Z,1023.18
2016-12-19T00:15:09.113Z,1023.24
2016-12-19T00:16:09.095Z,1023.25
2016-12-19T00:17:09.077Z,1023.32
2016-12-19T00:18:09.059Z,1023.26
2016-12-19T00:19:09.043Z,1023.33
2016-12-19T00:20:09.025Z,1023.36
2016-12-19T00:21:09.010Z,1023.36
2016-12-19T00:22:08.989Z,1023.35
2016-12-19T00:23:08.970Z,1023.33
2016-12-19T00:24:09.154Z,1023.34
2016-12-19T00:25:08.933Z,1023.3
2016-12-19T00:26:08.916Z,1023.27
2016-12-19T00:27:08.899Z,1023.23
2016-12-19T00:28:08.881Z,1023.25
2016-12-19T00:29:08.863Z,1023.25
2016-12-19T00:30:08.844Z,1023.21
2016-12-19T00:31:08.827Z,1023.21
2016-12-19T00:32:08.807Z,1023.22
2016-12-19T00:33:08.790Z,1023.19
2016-12-19T00:34:08.771Z,1023.17
2016-12-19T00:35:08.752Z,1023.18
2016-12-19T00:36:08.737Z,1023.17
2016-12-19T00:37:08.720Z,1023.17
2016-12-19T00:38:08.703Z,1023.2
2016-12-19T00:39:08.683Z,1023.19
2016-12-19T00:40:08.664Z,1023.23
2016-12-19T00:41:08.646Z,1023.2
2016-12-19T00:42:08.627Z,1023.18
2016-12-19T00:43:08.609Z,1023.2
2016-12-19T00:44:08.592Z,1023.21
2016-12-19T00:45:08.575Z,1023.19
2016-12-19T00:46:08.557Z,1023.21
2016-12-19T00:47:08.537Z,1023.18
2016-12-19T00:48:08.519Z,1023.19
2016-12-19T00:49:08.501Z,1023.2
2016-12-19T00:50:08.483Z,1023.2
2016-12-19T00:51:08.515Z,1023.2
2016-12-19T00:52:08.447Z,1023.19
2016-12-19T00:53:08.428Z,1023.16
2016-12-19T00:54:08.412Z,1023.2
2016-12-19T00:55:08.394Z,1023.21
2016-12-19T00:56:08.376Z,1023.19
2016-12-19T00:57:08.356Z,1023.2
2016-12-19T00:58:08.339Z,1023.18
2016-12-19T00:59:08.322Z,1023.19
2016-12-19T01:00:08.303Z,1023.17
2016-12-19T01:01:08.289Z,1023.22
2016-12-19T01:02:08.267Z,1023.26
2016-12-19T01:03:08.249Z,1023.19
2016-12-19T01:04:08.230Z,1023.2
2016-12-19T01:05:08.212Z,1023.17
2016-12-19T01:06:08.197Z,1023.2
2016-12-19T01:07:08.181Z,1023.18
2016-12-19T01:08:08.158Z,1023.2
2016-12-19T01:09:08.143Z,1023.16
2016-12-19T01:10:08.122Z,1023.16
2016-12-19T01:11:08.104Z,1023.19
2016-12-19T01:12:08.087Z,1023.13
2016-12-19T01:13:08.070Z,1023.16
2016-12-19T01:14:08.051Z,1023.14
2016-12-19T01:15:08.033Z,1023.16
2016-12-19T01:16:08.015Z,1023.12
2016-12-19T01:17:07.996Z,1023.08
2016-12-19T01:18:07.979Z,1023.06
2016-12-19T01:19:07.961Z,1023.11
2016-12-19T01:20:07.943Z,1023.12
2016-12-19T01:21:07.924Z,1023.12
2016-12-19T01:22:07.907Z,1023.09
2016-12-19T01:23:07.890Z,1023.11
2016-12-19T01:24:07.873Z,1023.11
2016-12-19T01:25:07.853Z,1023.11
2016-12-19T01:26:07.834Z,1023.1
2016-12-19T01:27:07.815Z,1023.05
2016-12-19T01:28:07.798Z,1023.05
2016-12-19T01:29:07.780Z,1023.02
2016-12-19T01:30:07.761Z,1023.05
2016-12-19T01:31:07.742Z,1023.08
2016-12-19T01:32:07.728Z,1023.04
2016-12-19T01:33:07.708Z,1023.03
2016-12-19T01:34:07.691Z,1023.02
2016-12-19T01:35:07.670Z,1022.98
2016-12-19T01:36:07.653Z,1022.97
2016-12-19T01:37:07.637Z,1023
2016-12-19T01:38:07.616Z,1023
2016-12-19T01:39:07.598Z,1022.98
2016-12-19T01:40:07.582Z,1022.98
2016-12-19T01:41:07.561Z,1023.02
2016-12-19T01:42:07.545Z,1022.98
2016-12-19T01:43:07.551Z,1022.99
2016-12-19T01:44:07.510Z,1023.01
2016-12-19T01:45:07.492Z,1022.99
2016-12-19T01:46:07.472Z,1022.98
2016-12-19T01:47:07.453Z,1022.96
2016-12-19T01:48:07.434Z,1022.94
2016-12-19T01:49:07.417Z,1022.93
2016-12-19T01:50:07.400Z,1022.93
2016-12-19T01:51:07.383Z,1022.91
2016-12-19T01:52:07.363Z,1022.91
2016-12-19T01:53:07.346Z,1022.87
2016-12-19T01:54:07.327Z,1022.97
2016-12-19T01:55:07.309Z,1022.95
2016-12-19T01:56:07.291Z,1022.94
2016-12-19T01:57:07.272Z,1022.93
2016-12-19T01:58:07.255Z,1022.9
2016-12-19T01:59:07.237Z,1022.95
2016-12-19T02:00:07.219Z,1022.92
2016-12-19T02:01:07.200Z,1022.9
2016-12-19T02:02:07.180Z,1022.9
2016-12-19T02:03:07.164Z,1022.88
2016-12-19T02:04:07.146Z,1022.89
2016-12-19T02:05:07.129Z,1022.88
2016-12-19T02:06:07.110Z,1022.87
2016-12-19T02:07:07.095Z,1022.86
2016-12-19T02:08:07.074Z,1022.86
2016-12-19T02:09:07.070Z,1022.84
2016-12-19T02:10:07.038Z,1022.84
2016-12-19T02:11:07.020Z,1022.83
2016-12-19T02:12:07.011Z,1022.83
2016-12-19T02:13:06.982Z,1022.81
2016-12-19T02:14:06.966Z,1022.81
2016-12-19T02:15:06.948Z,1022.75
2016-12-19T02:16:06.931Z,1022.77
2016-12-19T02:17:06.913Z,1022.76
2016-12-19T02:18:06.893Z,1022.78
2016-12-19T02:19:06.875Z,1022.74
2016-12-19T02:20:06.857Z,1022.77
2016-12-19T02:21:06.838Z,1022.76
2016-12-19T02:22:06.819Z,1022.79
2016-12-19T02:23:06.805Z,1022.78
2016-12-19T02:24:06.985Z,1022.69
2016-12-19T02:25:06.769Z,1022.71
2016-12-19T02:26:06.750Z,1022.72
2016-12-19T02:27:06.729Z,1022.69
2016-12-19T02:28:06.711Z,1022.68
2016-12-19T02:29:06.694Z,1022.7
2016-12-19T02:30:06.677Z,1022.69
2016-12-19T02:31:06.659Z,1022.7
2016-12-19T02:32:06.641Z,1022.75
2016-12-19T02:33:06.622Z,1022.72
2016-12-19T02:34:06.604Z,1022.69
2016-12-19T02:35:06.586Z,1022.64
2016-12-19T02:36:06.567Z,1022.63
2016-12-19T02:37:06.551Z,1022.66
2016-12-19T02:38:06.532Z,1022.63
2016-12-19T02:39:06.513Z,1022.65
2016-12-19T02:40:06.496Z,1022.65
2016-12-19T02:41:06.477Z,1022.65
2016-12-19T02:42:06.460Z,1022.66
2016-12-19T02:43:06.442Z,1022.65
2016-12-19T02:44:06.422Z,1022.64
2016-12-19T02:45:06.407Z,1022.62
2016-12-19T02:46:06.387Z,1022.58
2016-12-19T02:47:06.371Z,1022.6
2016-12-19T02:48:06.352Z,1022.55
2016-12-19T02:49:06.334Z,1022.6
2016-12-19T02:50:06.316Z,1022.55
2016-12-19T02:51:06.297Z,1022.57
2016-12-19T02:52:06.279Z,1022.55
2016-12-19T02:53:06.261Z,1022.52
2016-12-19T02:54:06.243Z,1022.49
2016-12-19T02:55:06.227Z,1022.48
2016-12-19T02:56:06.210Z,1022.46
2016-12-19T02:57:06.197Z,1022.44
2016-12-19T02:58:06.176Z,1022.45
2016-12-19T02:59:06.155Z,1022.47
2016-12-19T03:00:06.137Z,1022.48
2016-12-19T03:01:06.116Z,1022.55
2016-12-19T03:02:06.099Z,1022.53
2016-12-19T03:03:06.083Z,1022.53
2016-12-19T03:04:06.067Z,1022.58
2016-12-19T03:05:06.045Z,1022.54
2016-12-19T03:06:06.036Z,1022.6
2016-12-19T03:07:06.013Z,1022.59
2016-12-19T03:08:05.996Z,1022.57
2016-12-19T03:09:05.974Z,1022.6
2016-12-19T03:10:05.958Z,1022.64
2016-12-19T03:11:05.937Z,1022.62
2016-12-19T03:12:05.918Z,1022.59
2016-12-19T03:13:05.903Z,1022.64
2016-12-19T03:14:05.884Z,1022.6
2016-12-19T03:15:05.866Z,1022.64
2016-12-19T03:16:05.846Z,1022.63
2016-12-19T03:17:05.829Z,1022.63
2016-12-19T03:18:05.810Z,1022.64
2016-12-19T03:19:05.794Z,1022.6
2016-12-19T03:20:05.773Z,1022.55
2016-12-19T03:21:05.756Z,1022.5
2016-12-19T03:22:05.738Z,1022.52
2016-12-19T03:23:05.719Z,1022.51
2016-12-19T03:24:05.702Z,1022.51
2016-12-19T03:25:05.688Z,1022.51
2016-12-19T03:26:05.664Z,1022.51
2016-12-19T03:27:05.648Z,1022.53
2016-12-19T03:28:05.630Z,1022.54
2016-12-19T03:29:05.612Z,1022.51
2016-12-19T03:30:05.595Z,1022.54
2016-12-19T03:31:05.575Z,1022.49
2016-12-19T03:32:05.557Z,1022.56
2016-12-19T03:33:05.540Z,1022.49
2016-12-19T03:34:05.520Z,1022.51
2016-12-19T03:35:05.505Z,1022.53
2016-12-19T03:36:05.485Z,1022.49
2016-12-19T03:37:05.467Z,1022.5
2016-12-19T03:38:05.446Z,1022.48
2016-12-19T03:39:05.430Z,1022.47
2016-12-19T03:40:05.411Z,1022.42
2016-12-19T03:41:05.391Z,1022.39
2016-12-19T03:42:05.374Z,1022.41
2016-12-19T03:43:05.358Z,1022.42
2016-12-19T03:44:05.336Z,1022.39
2016-12-19T03:45:05.317Z,1022.33
2016-12-19T03:46:05.299Z,1022.35
2016-12-19T03:47:05.281Z,1022.41
2016-12-19T03:48:05.263Z,1022.32
2016-12-19T03:49:05.246Z,1022.38
2016-12-19T03:50:05.226Z,1022.39
2016-12-19T03:51:05.209Z,1022.39
2016-12-19T03:52:05.195Z,1022.38
2016-12-19T03:53:05.170Z,1022.37
2016-12-19T03:54:05.152Z,1022.32
2016-12-19T03:55:05.135Z,1022.29
2016-12-19T03:56:05.116Z,1022.3
2016-12-19T03:57:05.100Z,1022.31
2016-12-19T03:58:05.078Z,1022.28
2016-12-19T03:59:05.061Z,1022.22
2016-12-19T04:00:05.041Z,1022.24
2016-12-19T04:01:05.024Z,1022.17
2016-12-19T04:02:05.006Z,1022.23
2016-12-19T04:03:04.986Z,1022.24
2016-12-19T04:04:04.968Z,1022.22
2016-12-19T04:05:04.950Z,1022.21
2016-12-19T04:06:04.933Z,1022.18
2016-12-19T04:07:04.912Z,1022.16
2016-12-19T04:08:04.895Z,1022.19
2016-12-19T04:09:04.875Z,1022.21
2016-12-19T04:10:04.857Z,1022.2
2016-12-19T04:11:04.846Z,1022.19
2016-12-19T04:12:04.824Z,1022.2
2016-12-19T04:13:04.806Z,1022.21
2016-12-19T04:14:04.782Z,1022.16
2016-12-19T04:15:04.765Z,1022.16
2016-12-19T04:16:04.746Z,1022.16
2016-12-19T04:17:04.728Z,1022.13
2016-12-19T04:18:04.714Z,1022.12
2016-12-19T04:19:04.690Z,1022.1
2016-12-19T04:20:04.672Z,1022.1
2016-12-19T04:21:04.653Z,1022.07
2016-12-19T04:22:04.639Z,1022.06
2016-12-19T04:23:04.619Z,1022.07
2016-12-19T04:24:04.801Z,1022.06
2016-12-19T04:25:04.581Z,1022.11
2016-12-19T04:26:04.561Z,1022.12
2016-12-19T04:27:04.544Z,1022.12
2016-12-19T04:28:04.526Z,1022.06
2016-12-19T04:29:04.532Z,1022.07
2016-12-19T04:30:04.491Z,1022.08
2016-12-19T04:31:04.477Z,1022.05
2016-12-19T04:32:04.452Z,1022.06
2016-12-19T04:33:04.433Z,1022.02
2016-12-19T04:34:04.416Z,1021.99
2016-12-19T04:35:04.399Z,1021.96
2016-12-19T04:36:04.377Z,1021.95
2016-12-19T04:37:04.360Z,1021.96
2016-12-19T04:38:04.341Z,1021.91
2016-12-19T04:39:04.322Z,1021.91
2016-12-19T04:40:04.354Z,1021.93
2016-12-19T04:41:04.286Z,1022.02
2016-12-19T04:42:04.268Z,1021.97
2016-12-19T04:43:04.248Z,1022
2016-12-19T04:44:04.230Z,1022.02
2016-12-19T04:45:04.213Z,1022.03
2016-12-19T04:46:04.195Z,1022
2016-12-19T04:47:04.175Z,1022
2016-12-19T04:48:04.156Z,1022.04
2016-12-19T04:49:04.139Z,1022.07
2016-12-19T04:50:04.120Z,1022.08
2016-12-19T04:51:04.104Z,1022.05
2016-12-19T04:52:04.083Z,1022.03
2016-12-19T04:53:04.065Z,1022.02
2016-12-19T04:54:04.045Z,1022.03
2016-12-19T04:55:04.028Z,1022
2016-12-19T04:56:04.009Z,1022
2016-12-19T04:57:03.992Z,1022.03
2016-12-19T04:58:03.974Z,1022
2016-12-19T04:59:03.955Z,1021.99
2016-12-19T05:00:03.937Z,1021.94
2016-12-19T05:01:03.918Z,1021.9
2016-12-19T05:02:03.898Z,1021.84
2016-12-19T05:03:03.881Z,1021.87
2016-12-19T05:04:03.864Z,1021.88
2016-12-19T05:05:03.846Z,1021.84
2016-12-19T05:06:03.826Z,1021.87
2016-12-19T05:07:03.808Z,1021.85
2016-12-19T05:08:03.812Z,1021.85
2016-12-19T05:09:03.770Z,1021.86
2016-12-19T05:10:03.769Z,1021.89
2016-12-19T05:11:03.736Z,1021.84
2016-12-19T05:12:03.719Z,1021.78
2016-12-19T05:13:03.700Z,1021.82
2016-12-19T05:14:03.680Z,1021.77
2016-12-19T05:15:03.661Z,1021.81
2016-12-19T05:16:03.644Z,1021.78
2016-12-19T05:17:03.624Z,1021.81
2016-12-19T05:18:03.607Z,1021.79
2016-12-19T05:19:03.588Z,1021.81
2016-12-19T05:20:03.571Z,1021.77
2016-12-19T05:21:03.638Z,1021.77
2016-12-19T05:22:03.536Z,1021.76
2016-12-19T05:23:03.516Z,1021.75
2016-12-19T05:24:03.499Z,1021.72
2016-12-19T05:25:03.480Z,1021.73
2016-12-19T05:26:03.460Z,1021.74
2016-12-19T05:27:03.441Z,1021.77
2016-12-19T05:28:03.423Z,1021.79
2016-12-19T05:29:03.408Z,1021.77
2016-12-19T05:30:03.387Z,1021.75
2016-12-19T05:31:03.368Z,1021.72
2016-12-19T05:32:03.353Z,1021.72
2016-12-19T05:33:03.332Z,1021.71
2016-12-19T05:34:03.316Z,1021.75
2016-12-19T05:35:03.299Z,1021.74
2016-12-19T05:36:03.278Z,1021.69
2016-12-19T05:37:03.262Z,1021.65
2016-12-19T05:38:03.240Z,1021.67
2016-12-19T05:39:03.223Z,1021.59
2016-12-19T05:40:03.204Z,1021.62
2016-12-19T05:41:03.187Z,1021.63
2016-12-19T05:42:03.168Z,1021.58
2016-12-19T05:43:03.149Z,1021.61
2016-12-19T05:44:03.131Z,1021.63
2016-12-19T05:45:03.113Z,1021.64
2016-12-19T05:46:03.096Z,1021.59
2016-12-19T05:47:03.081Z,1021.59
2016-12-19T05:48:03.059Z,1021.6
2016-12-19T05:49:03.041Z,1021.6
2016-12-19T05:50:03.021Z,1021.58
2016-12-19T05:51:03.014Z,1021.55
2016-12-19T05:52:02.986Z,1021.53
2016-12-19T05:53:02.969Z,1021.51
2016-12-19T05:54:02.947Z,1021.48
2016-12-19T05:55:02.929Z,1021.49
2016-12-19T05:56:02.910Z,1021.51
2016-12-19T05:57:02.893Z,1021.51
2016-12-19T05:58:02.875Z,1021.49
2016-12-19T05:59:02.856Z,1021.48
2016-12-19T06:00:02.837Z,1021.51
2016-12-19T06:01:02.819Z,1021.56
2016-12-19T06:02:02.800Z,1021.59
2016-12-19T06:03:02.783Z,1021.61
2016-12-19T06:04:02.764Z,1021.59
2016-12-19T06:05:02.745Z,1021.59
2016-12-19T06:06:03.440Z,1021.56
2016-12-19T06:07:02.711Z,1021.6
2016-12-19T06:08:02.690Z,1021.59
2016-12-19T06:09:02.676Z,1021.49
2016-12-19T06:10:02.653Z,1021.48
2016-12-19T06:11:02.638Z,1021.47
2016-12-19T06:12:02.616Z,1021.48
2016-12-19T06:13:02.600Z,1021.49
2016-12-19T06:14:02.579Z,1021.49
2016-12-19T06:15:02.562Z,1021.51
2016-12-19T06:16:02.543Z,1021.52
2016-12-19T06:17:02.526Z,1021.54
2016-12-19T06:18:02.508Z,1021.5
2016-12-19T06:19:02.489Z,1021.47
2016-12-19T06:20:02.469Z,1021.53
2016-12-19T06:21:02.451Z,1021.54
2016-12-19T06:22:02.431Z,1021.58
2016-12-19T06:23:02.414Z,1021.54
2016-12-19T06:24:02.598Z,1021.5
2016-12-19T06:25:02.380Z,1021.51
2016-12-19T06:26:02.361Z,1021.51
2016-12-19T06:27:02.342Z,1021.54
2016-12-19T06:28:02.323Z,1021.5
2016-12-19T06:29:02.304Z,1021.52
2016-12-19T06:30:02.288Z,1021.55
2016-12-19T06:31:02.273Z,1021.55
2016-12-19T06:32:02.254Z,1021.58
2016-12-19T06:33:02.239Z,1021.58
2016-12-19T06:34:02.219Z,1021.57
2016-12-19T06:35:02.195Z,1021.56
2016-12-19T06:36:02.182Z,1021.51
2016-12-19T06:37:02.159Z,1021.48
2016-12-19T06:38:02.144Z,1021.47
2016-12-19T06:39:02.122Z,1021.45
2016-12-19T06:40:02.105Z,1021.45
2016-12-19T06:41:02.085Z,1021.47
2016-12-19T06:42:02.068Z,1021.51
2016-12-19T06:43:02.049Z,1021.48
2016-12-19T06:44:02.034Z,1021.49
2016-12-19T06:45:02.011Z,1021.53
2016-12-19T06:46:01.993Z,1021.5
2016-12-19T06:47:01.976Z,1021.5
2016-12-19T06:48:01.958Z,1021.52
2016-12-19T06:49:01.937Z,1021.52
2016-12-19T06:50:01.920Z,1021.51
2016-12-19T06:51:01.902Z,1021.51
2016-12-19T06:52:01.882Z,1021.47
2016-12-19T06:53:01.866Z,1021.51
2016-12-19T06:54:01.847Z,1021.5
2016-12-19T06:55:01.827Z,1021.54
2016-12-19T06:56:01.811Z,1021.53
2016-12-19T06:57:01.790Z,1021.52
2016-12-19T06:58:01.770Z,1021.52
2016-12-19T06:59:01.755Z,1021.54
2016-12-19T07:00:01.739Z,1021.52
2016-12-19T07:01:01.719Z,1021.51
2016-12-19T07:02:01.816Z,1021.48
2016-12-19T07:03:01.684Z,1021.46
2016-12-19T07:04:01.664Z,1021.49
2016-12-19T07:05:01.642Z,1021.53
2016-12-19T07:06:01.623Z,1021.43
2016-12-19T07:07:01.606Z,1021.42
2016-12-19T07:08:01.587Z,1021.34
2016-12-19T07:09:01.567Z,1021.37
2016-12-19T07:10:01.550Z,1021.33
2016-12-19T07:11:01.530Z,1021.37
2016-12-19T07:12:01.512Z,1021.4
2016-12-19T07:13:01.496Z,1021.39
2016-12-19T07:14:01.477Z,1021.38
2016-12-19T07:15:01.456Z,1021.34
2016-12-19T07:16:01.438Z,1021.39
2016-12-19T07:17:01.420Z,1021.37
2016-12-19T07:18:01.400Z,1021.35
2016-12-19T07:19:01.382Z,1021.3
2016-12-19T07:20:01.364Z,1021.34
2016-12-19T07:21:01.344Z,1021.29
2016-12-19T07:22:01.326Z,1021.3
2016-12-19T07:23:01.308Z,1021.31
2016-12-19T07:24:01.289Z,1021.35
2016-12-19T07:25:01.271Z,1021.37
2016-12-19T07:26:01.252Z,1021.37
2016-12-19T07:27:01.233Z,1021.41
2016-12-19T07:28:01.213Z,1021.43
2016-12-19T07:29:01.195Z,1021.46
2016-12-19T07:30:01.178Z,1021.44
2016-12-19T07:31:01.160Z,1021.46
2016-12-19T07:32:01.140Z,1021.44
2016-12-19T07:33:01.121Z,1021.44
2016-12-19T07:34:01.103Z,1021.39
2016-12-19T07:35:01.084Z,1021.33
2016-12-19T07:36:01.064Z,1021.34
2016-12-19T07:37:01.048Z,1021.36
2016-12-19T07:38:01.027Z,1021.44
2016-12-19T07:39:01.007Z,1021.44
2016-12-19T07:40:00.989Z,1021.48
2016-12-19T07:41:00.971Z,1021.48
2016-12-19T07:42:00.952Z,1021.47
2016-12-19T07:43:00.937Z,1021.48
2016-12-19T07:44:00.915Z,1021.43
2016-12-19T07:45:00.902Z,1021.4
2016-12-19T07:46:00.877Z,1021.47
2016-12-19T07:47:00.864Z,1021.5
2016-12-19T07:48:00.839Z,1021.52
2016-12-19T07:49:00.857Z,1021.5
2016-12-19T07:50:00.801Z,1021.5
2016-12-19T07:51:00.790Z,1021.46
2016-12-19T07:52:00.763Z,1021.41
2016-12-19T07:53:00.760Z,1021.43
2016-12-19T07:54:00.725Z,1021.44
2016-12-19T07:55:00.710Z,1021.45
2016-12-19T07:56:00.688Z,1021.45
2016-12-19T07:57:00.667Z,1021.43
2016-12-19T07:58:00.649Z,1021.43
2016-12-19T07:59:00.632Z,1021.37
2016-12-19T08:00:00.611Z,1021.38
2016-12-19T08:01:00.592Z,1021.37
2016-12-19T08:02:00.573Z,1021.38
2016-12-19T08:03:00.556Z,1021.38
2016-12-19T08:04:00.539Z,1021.33
2016-12-19T08:05:00.516Z,1021.3
2016-12-19T08:06:00.499Z,1021.31
2016-12-19T08:07:00.479Z,1021.29
2016-12-19T08:08:00.460Z,1021.29
2016-12-19T08:09:00.442Z,1021.28
2016-12-19T08:10:00.424Z,1021.22
2016-12-19T08:11:00.407Z,1021.19
2016-12-19T08:12:00.386Z,1021.18
2016-12-19T08:13:00.367Z,1021.21
2016-12-19T08:14:00.349Z,1021.23
2016-12-19T08:15:00.331Z,1021.3
2016-12-19T08:16:00.310Z,1021.35
2016-12-19T08:17:00.294Z,1021.38
2016-12-19T08:18:00.274Z,1021.31
2016-12-19T08:19:00.253Z,1021.27
2016-12-19T08:20:00.235Z,1021.27
2016-12-19T08:21:00.216Z,1021.29
2016-12-19T08:22:00.196Z,1021.35
2016-12-19T08:23:00.178Z,1021.4
2016-12-19T08:24:00.159Z,1021.4
2016-12-19T08:25:00.343Z,1021.34
2016-12-19T08:26:00.121Z,1021.34
2016-12-19T08:27:00.296Z,1021.32
2016-12-19T08:28:00.085Z,1021.34
2016-12-19T08:29:00.066Z,1021.3
2016-12-19T08:30:00.046Z,1021.29
2016-12-19T08:31:00.027Z,1021.22
2016-12-19T08:32:00.009Z,1021.17
2016-12-19T08:32:59.988Z,1021.18
2016-12-19T08:33:59.970Z,1021.14
2016-12-19T08:34:59.952Z,1021.13
2016-12-19T08:35:59.934Z,1021.11
2016-12-19T08:36:59.912Z,1021.08
2016-12-19T08:37:59.894Z,1021.06
2016-12-19T08:38:59.876Z,1021.01
2016-12-19T08:39:59.860Z,1021.02
2016-12-19T08:40:59.839Z,1020.98
2016-12-19T08:41:59.820Z,1021.01
2016-12-19T08:42:59.804Z,1021.02
2016-12-19T08:43:59.783Z,1021.06
2016-12-19T08:44:59.763Z,1021.1
2016-12-19T08:45:59.744Z,1021.11
2016-12-19T08:46:59.726Z,1021.17
2016-12-19T08:47:59.705Z,1021.14
2016-12-19T08:48:59.687Z,1021.18
2016-12-19T08:49:59.670Z,1021.24
2016-12-19T08:50:59.649Z,1021.22
2016-12-19T08:51:59.629Z,1021.2
2016-12-19T08:52:59.610Z,1021.18
2016-12-19T08:53:59.591Z,1021.21
2016-12-19T08:54:59.572Z,1021.19
2016-12-19T08:55:59.553Z,1021.24
2016-12-19T08:56:59.535Z,1021.21
2016-12-19T08:57:59.517Z,1021.2
2016-12-19T08:58:59.495Z,1021.18
2016-12-19T08:59:59.479Z,1021.18
2016-12-19T09:00:59.460Z,1021.2
2016-12-19T09:01:59.439Z,1021.21
2016-12-19T09:02:59.421Z,1021.17
2016-12-19T09:03:59.401Z,1021.15
2016-12-19T09:04:59.395Z,1021.11
2016-12-19T09:05:59.363Z,1021.17
2016-12-19T09:06:59.345Z,1021.18
2016-12-19T09:07:59.327Z,1021.19
2016-12-19T09:08:59.307Z,1021.21
2016-12-19T09:09:59.288Z,1021.23
2016-12-19T09:10:59.268Z,1021.23
2016-12-19T09:11:59.250Z,1021.23
2016-12-19T09:12:59.231Z,1021.23
2016-12-19T09:13:59.212Z,1021.25
2016-12-19T09:14:59.195Z,1021.24
2016-12-19T09:15:59.174Z,1021.26
2016-12-19T09:16:59.155Z,1021.27
2016-12-19T09:17:59.138Z,1021.32
2016-12-19T09:18:59.117Z,1021.28
2016-12-19T09:19:59.099Z,1021.3
2016-12-19T09:20:59.086Z,1021.33
2016-12-19T09:21:59.063Z,1021.31
2016-12-19T09:22:59.045Z,1021.33
2016-12-19T09:23:59.024Z,1021.34
2016-12-19T09:24:59.007Z,1021.42
2016-12-19T09:25:58.987Z,1021.43
2016-12-19T09:26:58.970Z,1021.41
2016-12-19T09:27:58.951Z,1021.45
2016-12-19T09:28:58.931Z,1021.43
2016-12-19T09:29:58.914Z,1021.47
2016-12-19T09:30:58.893Z,1021.48
2016-12-19T09:31:58.875Z,1021.52
2016-12-19T09:32:58.858Z,1021.51
2016-12-19T09:33:58.839Z,1021.5
2016-12-19T09:34:58.819Z,1021.49
2016-12-19T09:35:58.801Z,1021.5
2016-12-19T09:36:58.782Z,1021.51
2016-12-19T09:37:58.763Z,1021.49
2016-12-19T09:38:58.744Z,1021.55
2016-12-19T09:39:58.726Z,1021.52
2016-12-19T09:40:58.708Z,1021.55
2016-12-19T09:41:58.689Z,1021.54
2016-12-19T09:42:58.673Z,1021.55
2016-12-19T09:43:58.655Z,1021.54
2016-12-19T09:44:58.637Z,1021.56
2016-12-19T09:45:58.618Z,1021.62
2016-12-19T09:46:58.599Z,1021.59
2016-12-19T09:47:58.581Z,1021.55
2016-12-19T09:48:58.562Z,1021.55
2016-12-19T09:49:58.544Z,1021.57
2016-12-19T09:50:58.527Z,1021.59
2016-12-19T09:51:58.509Z,1021.54
2016-12-19T09:52:58.490Z,1021.53
2016-12-19T09:53:58.473Z,1021.51
2016-12-19T09:54:58.455Z,1021.5
2016-12-19T09:55:58.436Z,1021.47
2016-12-19T09:56:58.418Z,1021.5
2016-12-19T09:57:58.401Z,1021.56
2016-12-19T09:58:58.385Z,1021.54
2016-12-19T09:59:58.366Z,1021.57
2016-12-19T10:00:58.348Z,1021.57
2016-12-19T10:01:58.331Z,1021.56
2016-12-19T10:02:58.316Z,1021.56
2016-12-19T10:03:58.300Z,1021.57
2016-12-19T10:04:58.282Z,1021.57
2016-12-19T10:05:58.264Z,1021.56
2016-12-19T10:06:58.249Z,1021.57
2016-12-19T10:07:58.231Z,1021.57
2016-12-19T10:08:58.215Z,1021.59
2016-12-19T10:09:58.198Z,1021.58
2016-12-19T10:10:58.183Z,1021.6
2016-12-19T10:11:58.166Z,1021.58
2016-12-19T10:12:58.152Z,1021.6
2016-12-19T10:13:58.138Z,1021.59
2016-12-19T10:14:58.123Z,1021.63
2016-12-19T10:15:58.107Z,1021.64
2016-12-19T10:16:58.093Z,1021.65
2016-12-19T10:17:58.085Z,1021.67
2016-12-19T10:18:58.063Z,1021.66
2016-12-19T10:19:58.050Z,1021.6
2016-12-19T10:20:58.037Z,1021.6
2016-12-19T10:21:58.342Z,1021.62
2016-12-19T10:22:58.008Z,1021.57
2016-12-19T10:23:57.995Z,1021.57
2016-12-19T10:24:58.185Z,1021.61
2016-12-19T10:25:57.969Z,1021.65
2016-12-19T10:26:57.957Z,1021.64
2016-12-19T10:27:57.942Z,1021.63
2016-12-19T10:28:57.931Z,1021.61
2016-12-19T10:29:57.919Z,1021.6
2016-12-19T10:30:57.902Z,1021.57
2016-12-19T10:31:57.890Z,1021.55
2016-12-19T10:32:57.878Z,1021.56
2016-12-19T10:33:57.862Z,1021.58
2016-12-19T10:34:57.852Z,1021.52
2016-12-19T10:35:57.836Z,1021.54
2016-12-19T10:36:57.827Z,1021.57
2016-12-19T10:37:57.811Z,1021.58
2016-12-19T10:38:57.798Z,1021.55
2016-12-19T10:39:57.786Z,1021.5
2016-12-19T10:40:57.774Z,1021.5
2016-12-19T10:41:57.764Z,1021.46
2016-12-19T10:42:57.748Z,1021.46
2016-12-19T10:43:57.737Z,1021.46
2016-12-19T10:44:57.723Z,1021.42
2016-12-19T10:45:57.711Z,1021.38
2016-12-19T10:46:57.698Z,1021.37
2016-12-19T10:47:57.687Z,1021.4
2016-12-19T10:48:57.673Z,1021.35
2016-12-19T10:49:57.661Z,1021.36
2016-12-19T10:50:57.649Z,1021.33
2016-12-19T10:51:57.649Z,1021.32
2016-12-19T10:52:57.624Z,1021.34
2016-12-19T10:53:57.612Z,1021.26
2016-12-19T10:54:57.601Z,1021.25
2016-12-19T10:55:57.587Z,1021.25
2016-12-19T10:56:57.577Z,1021.24
2016-12-19T10:57:57.566Z,1021.21
2016-12-19T10:58:57.555Z,1021.28
2016-12-19T10:59:57.544Z,1021.27
2016-12-19T11:00:57.528Z,1021.21
2016-12-19T11:01:57.515Z,1021.19
2016-12-19T11:02:57.502Z,1021.2
2016-12-19T11:03:57.491Z,1021.18
2016-12-19T11:04:57.478Z,1021.2
2016-12-19T11:05:57.469Z,1021.18
2016-12-19T11:06:57.453Z,1021.11
2016-12-19T11:07:57.442Z,1021.13
2016-12-19T11:08:57.429Z,1021.08
2016-12-19T11:09:57.417Z,1021.12
2016-12-19T11:10:57.408Z,1021.11
2016-12-19T11:11:57.395Z,1021.09
2016-12-19T11:12:57.381Z,1021.11
2016-12-19T11:13:57.369Z,1021.14
2016-12-19T11:14:57.357Z,1021.11
2016-12-19T11:15:57.346Z,1021.04
2016-12-19T11:16:57.339Z,1021.05
2016-12-19T11:17:57.322Z,1021.02
2016-12-19T11:18:57.312Z,1021.03
2016-12-19T11:19:57.302Z,1021.01
2016-12-19T11:20:57.288Z,1020.99
2016-12-19T11:21:57.278Z,1020.97
2016-12-19T11:22:57.266Z,1020.94
2016-12-19T11:23:57.256Z,1020.94
2016-12-19T11:24:57.244Z,1020.88
2016-12-19T11:25:57.232Z,1020.87
2016-12-19T11:26:57.221Z,1020.87
2016-12-19T11:27:57.230Z,1020.9
2016-12-19T11:28:57.198Z,1020.89
2016-12-19T11:29:57.210Z,1020.86
2016-12-19T11:30:57.175Z,1020.82
2016-12-19T11:31:57.161Z,1020.78
2016-12-19T11:32:57.149Z,1020.75
2016-12-19T11:33:57.139Z,1020.73
2016-12-19T11:34:57.125Z,1020.73
2016-12-19T11:35:57.111Z,1020.77
2016-12-19T11:36:57.099Z,1020.79
2016-12-19T11:37:57.086Z,1020.74
2016-12-19T11:38:57.074Z,1020.75
2016-12-19T11:39:57.061Z,1020.72
2016-12-19T11:40:57.049Z,1020.76
2016-12-19T11:41:57.035Z,1020.69
2016-12-19T11:42:57.019Z,1020.68
2016-12-19T11:43:57.006Z,1020.63
2016-12-19T11:44:56.994Z,1020.62
2016-12-19T11:45:56.979Z,1020.63
2016-12-19T11:46:56.964Z,1020.64
2016-12-19T11:47:56.952Z,1020.58
2016-12-19T11:48:56.939Z,1020.59
2016-12-19T11:49:56.924Z,1020.61
2016-12-19T11:50:56.909Z,1020.6
2016-12-19T11:51:56.894Z,1020.62
2016-12-19T11:52:56.882Z,1020.56
2016-12-19T11:53:56.864Z,1020.55
2016-12-19T11:54:56.850Z,1020.53
2016-12-19T11:55:56.835Z,1020.52
2016-12-19T11:56:56.822Z,1020.52
2016-12-19T11:57:56.805Z,1020.51
2016-12-19T11:58:56.791Z,1020.45
2016-12-19T11:59:56.776Z,1020.46
2016-12-19T12:00:56.761Z,1020.46
2016-12-19T12:01:56.745Z,1020.47
2016-12-19T12:02:56.731Z,1020.42
2016-12-19T12:03:56.715Z,1020.38
2016-12-19T12:04:56.700Z,1020.39
2016-12-19T12:05:56.684Z,1020.38
2016-12-19T12:06:56.670Z,1020.35
2016-12-19T12:07:56.654Z,1020.32